sensor_id;sensor_type;location;lat;lon;timestamp;pressure;altitude;pressure_sealevel;temperature;humidity
60465;BME280;46314;52.392;9.758;2023-05-22T00:00:03;100817.03;;;20.58;58.52
60465;BME280;46314;52.392;9.758;2023-05-22T00:02:30;100816.59;;;20.56;58.35
60465;BME280;46314;52.392;9.758;2023-05-22T00:04:57;100819.16;;;20.61;58.53
60465;BME280;46314;52.392;9.758;2023-05-22T00:07:23;100812.03;;;20.52;58.63
60465;BME280;46314;52.392;9.758;2023-05-22T00:09:50;100813.25;;;20.35;58.74
60465;BME280;46314;52.392;9.758;2023-05-22T00:12:18;100802.94;;;20.58;58.66
60465;BME280;46314;52.392;9.758;2023-05-22T00:14:44;100811.72;;;20.37;59.13
60465;BME280;46314;52.392;9.758;2023-05-22T00:17:10;100811.72;;;20.37;59.23
60465;BME280;46314;52.392;9.758;2023-05-22T00:19:37;100803.72;;;20.08;59.93
60465;BME280;46314;52.392;9.758;2023-05-22T00:22:04;100797.38;;;20.27;59.24
60465;BME280;46314;52.392;9.758;2023-05-22T00:24:30;100794.16;;;20.44;59.05
60465;BME280;46314;52.392;9.758;2023-05-22T00:26:57;100801.16;;;20.34;59.56
60465;BME280;46314;52.392;9.758;2023-05-22T00:29:25;100798.69;;;20.33;59.08
60465;BME280;46314;52.392;9.758;2023-05-22T00:31:51;100793.72;;;20.10;59.98
60465;BME280;46314;52.392;9.758;2023-05-22T00:34:18;100795.25;;;20.23;60.00
60465;BME280;46314;52.392;9.758;2023-05-22T00:36:44;100792.09;;;19.93;60.50
60465;BME280;46314;52.392;9.758;2023-05-22T00:39:11;100800.72;;;20.16;60.04
60465;BME280;46314;52.392;9.758;2023-05-22T00:41:37;100798.63;;;20.13;60.01
60465;BME280;46314;52.392;9.758;2023-05-22T00:44:04;100794.44;;;19.91;60.42
60465;BME280;46314;52.392;9.758;2023-05-22T00:46:32;100789.72;;;19.95;60.31
60465;BME280;46314;52.392;9.758;2023-05-22T00:48:58;100794.53;;;19.95;60.48
60465;BME280;46314;52.392;9.758;2023-05-22T00:51:25;100792.19;;;19.97;60.22
60465;BME280;46314;52.392;9.758;2023-05-22T00:53:52;100788.06;;;20.10;59.97
60465;BME280;46314;52.392;9.758;2023-05-22T00:56:19;100792.44;;;20.08;59.91
60465;BME280;46314;52.392;9.758;2023-05-22T00:58:46;100793.25;;;20.08;59.83
60465;BME280;46314;52.392;9.758;2023-05-22T01:01:13;100788.66;;;20.00;60.20
60465;BME280;46314;52.392;9.758;2023-05-22T01:03:41;100790.09;;;19.94;60.09
60465;BME280;46314;52.392;9.758;2023-05-22T01:06:09;100788.41;;;19.77;60.37
60465;BME280;46314;52.392;9.758;2023-05-22T01:08:35;100787.63;;;19.76;60.88
60465;BME280;46314;52.392;9.758;2023-05-22T01:11:06;100789.28;;;20.09;59.85
60465;BME280;46314;52.392;9.758;2023-05-22T01:13:41;100780.06;;;19.96;59.89
60465;BME280;46314;52.392;9.758;2023-05-22T01:16:16;100775.38;;;20.16;59.65
60465;BME280;46314;52.392;9.758;2023-05-22T01:18:57;100788.63;;;20.32;59.20
60465;BME280;46314;52.392;9.758;2023-05-22T01:21:31;100782.94;;;20.12;59.68
60465;BME280;46314;52.392;9.758;2023-05-22T01:24:19;100780.56;;;19.98;59.92
60465;BME280;46314;52.392;9.758;2023-05-22T01:27:14;100782.00;;;20.08;59.57
60465;BME280;46314;52.392;9.758;2023-05-22T01:29:49;100782.53;;;19.98;60.02
60465;BME280;46314;52.392;9.758;2023-05-22T01:32:24;100780.66;;;19.86;60.19
60465;BME280;46314;52.392;9.758;2023-05-22T01:34:53;100772.28;;;19.74;60.63
60465;BME280;46314;52.392;9.758;2023-05-22T01:37:22;100768.19;;;19.43;61.43
60465;BME280;46314;52.392;9.758;2023-05-22T01:39:50;100771.91;;;19.47;61.39
60465;BME280;46314;52.392;9.758;2023-05-22T01:42:16;100773.09;;;19.18;62.18
60465;BME280;46314;52.392;9.758;2023-05-22T01:44:43;100773.06;;;19.30;61.70
60465;BME280;46314;52.392;9.758;2023-05-22T01:47:10;100762.22;;;19.16;61.79
60465;BME280;46314;52.392;9.758;2023-05-22T01:49:38;100770.75;;;19.20;61.85
60465;BME280;46314;52.392;9.758;2023-05-22T01:52:09;100764.88;;;19.25;61.98
60465;BME280;46314;52.392;9.758;2023-05-22T01:54:38;100774.13;;;19.25;61.97
60465;BME280;46314;52.392;9.758;2023-05-22T01:57:12;100772.69;;;19.32;61.36
60465;BME280;46314;52.392;9.758;2023-05-22T01:59:43;100766.13;;;19.27;61.35
60465;BME280;46314;52.392;9.758;2023-05-22T02:02:13;100769.06;;;19.31;61.41
60465;BME280;46314;52.392;9.758;2023-05-22T02:04:44;100765.94;;;19.20;61.67
60465;BME280;46314;52.392;9.758;2023-05-22T02:07:13;100756.53;;;19.00;61.92
60465;BME280;46314;52.392;9.758;2023-05-22T02:09:40;100759.50;;;18.91;62.14
60465;BME280;46314;52.392;9.758;2023-05-22T02:12:09;100755.63;;;18.96;61.94
60465;BME280;46314;52.392;9.758;2023-05-22T02:14:37;100756.94;;;19.15;61.68
60465;BME280;46314;52.392;9.758;2023-05-22T02:17:04;100743.94;;;19.38;60.59
60465;BME280;46314;52.392;9.758;2023-05-22T02:19:33;100744.34;;;19.08;61.25
60465;BME280;46314;52.392;9.758;2023-05-22T02:22:00;100737.16;;;18.70;62.93
60465;BME280;46314;52.392;9.758;2023-05-22T02:24:28;100748.56;;;19.02;61.54
60465;BME280;46314;52.392;9.758;2023-05-22T02:26:55;100746.81;;;18.98;61.72
60465;BME280;46314;52.392;9.758;2023-05-22T02:29:21;100746.69;;;19.79;59.35
60465;BME280;46314;52.392;9.758;2023-05-22T02:31:48;100739.72;;;19.60;59.20
60465;BME280;46314;52.392;9.758;2023-05-22T02:34:14;100742.31;;;19.09;60.72
60465;BME280;46314;52.392;9.758;2023-05-22T02:36:41;100739.22;;;19.86;58.68
60465;BME280;46314;52.392;9.758;2023-05-22T02:39:09;100742.69;;;19.52;59.57
60465;BME280;46314;52.392;9.758;2023-05-22T02:41:35;100730.97;;;19.05;60.84
60465;BME280;46314;52.392;9.758;2023-05-22T02:44:01;100729.41;;;18.67;61.67
60465;BME280;46314;52.392;9.758;2023-05-22T02:46:28;100730.44;;;19.00;61.23
60465;BME280;46314;52.392;9.758;2023-05-22T02:48:54;100725.41;;;18.81;61.30
60465;BME280;46314;52.392;9.758;2023-05-22T02:51:21;100734.19;;;18.91;61.05
60465;BME280;46314;52.392;9.758;2023-05-22T02:53:47;100732.28;;;19.24;60.25
60465;BME280;46314;52.392;9.758;2023-05-22T02:56:15;100735.41;;;19.06;60.59
60465;BME280;46314;52.392;9.758;2023-05-22T02:58:42;100718.78;;;18.61;61.73
60465;BME280;46314;52.392;9.758;2023-05-22T03:01:08;100718.81;;;18.48;62.50
60465;BME280;46314;52.392;9.758;2023-05-22T03:03:35;100722.19;;;18.66;61.48
60465;BME280;46314;52.392;9.758;2023-05-22T03:06:02;100728.47;;;18.76;61.11
60465;BME280;46314;52.392;9.758;2023-05-22T03:08:29;100727.06;;;18.82;61.14
60465;BME280;46314;52.392;9.758;2023-05-22T03:10:56;100723.94;;;18.59;61.71
60465;BME280;46314;52.392;9.758;2023-05-22T03:13:24;100721.25;;;18.50;62.08
60465;BME280;46314;52.392;9.758;2023-05-22T03:15:51;100716.13;;;18.40;62.07
60465;BME280;46314;52.392;9.758;2023-05-22T03:18:17;100724.78;;;18.34;62.49
60465;BME280;46314;52.392;9.758;2023-05-22T03:20:44;100732.66;;;18.29;62.39
60465;BME280;46314;52.392;9.758;2023-05-22T03:23:11;100720.91;;;18.51;61.84
60465;BME280;46314;52.392;9.758;2023-05-22T03:25:37;100726.91;;;18.25;62.49
60465;BME280;46314;52.392;9.758;2023-05-22T03:28:04;100733.81;;;18.40;62.19
60465;BME280;46314;52.392;9.758;2023-05-22T03:30:31;100729.13;;;18.32;61.92
60465;BME280;46314;52.392;9.758;2023-05-22T03:32:58;100728.53;;;18.51;61.53
60465;BME280;46314;52.392;9.758;2023-05-22T03:35:24;100731.13;;;18.44;61.64
60465;BME280;46314;52.392;9.758;2023-05-22T03:37:51;100730.03;;;18.48;61.67
60465;BME280;46314;52.392;9.758;2023-05-22T03:40:17;100736.97;;;18.39;61.70
60465;BME280;46314;52.392;9.758;2023-05-22T03:42:44;100728.56;;;18.26;61.96
60465;BME280;46314;52.392;9.758;2023-05-22T03:45:10;100730.19;;;18.27;61.95
60465;BME280;46314;52.392;9.758;2023-05-22T03:47:38;100732.06;;;18.35;61.46
60465;BME280;46314;52.392;9.758;2023-05-22T03:50:05;100729.84;;;18.29;61.43
60465;BME280;46314;52.392;9.758;2023-05-22T03:52:32;100725.41;;;18.40;61.49
60465;BME280;46314;52.392;9.758;2023-05-22T03:54:58;100719.19;;;18.47;61.08
60465;BME280;46314;52.392;9.758;2023-05-22T03:57:25;100715.53;;;18.46;61.25
60465;BME280;46314;52.392;9.758;2023-05-22T03:59:52;100727.38;;;18.27;61.47
60465;BME280;46314;52.392;9.758;2023-05-22T04:02:18;100715.66;;;18.50;60.93
60465;BME280;46314;52.392;9.758;2023-05-22T04:04:46;100718.84;;;18.77;60.30
60465;BME280;46314;52.392;9.758;2023-05-22T04:07:13;100725.75;;;18.39;61.06
60465;BME280;46314;52.392;9.758;2023-05-22T04:09:39;100722.09;;;18.50;60.86
60465;BME280;46314;52.392;9.758;2023-05-22T04:12:07;100715.59;;;18.74;60.08
60465;BME280;46314;52.392;9.758;2023-05-22T04:14:33;100727.25;;;19.29;58.70
60465;BME280;46314;52.392;9.758;2023-05-22T04:17:00;100723.91;;;19.11;59.38
60465;BME280;46314;52.392;9.758;2023-05-22T04:19:26;100727.28;;;18.89;59.68
60465;BME280;46314;52.392;9.758;2023-05-22T04:21:56;100720.75;;;18.85;60.07
60465;BME280;46314;52.392;9.758;2023-05-22T04:24:22;100726.81;;;18.87;59.26
60465;BME280;46314;52.392;9.758;2023-05-22T04:26:49;100731.16;;;19.41;57.76
60465;BME280;46314;52.392;9.758;2023-05-22T04:29:15;100733.22;;;19.28;58.49
60465;BME280;46314;52.392;9.758;2023-05-22T04:31:42;100737.75;;;18.51;60.79
60465;BME280;46314;52.392;9.758;2023-05-22T04:34:09;100737.56;;;18.32;61.07
60465;BME280;46314;52.392;9.758;2023-05-22T04:36:36;100737.97;;;18.83;59.71
60465;BME280;46314;52.392;9.758;2023-05-22T04:39:03;100729.91;;;18.57;60.81
60465;BME280;46314;52.392;9.758;2023-05-22T04:41:30;100739.47;;;18.81;60.12
60465;BME280;46314;52.392;9.758;2023-05-22T04:43:56;100740.38;;;18.97;59.24
60465;BME280;46314;52.392;9.758;2023-05-22T04:46:23;100743.50;;;19.52;58.36
60465;BME280;46314;52.392;9.758;2023-05-22T04:48:49;100736.50;;;19.02;59.01
60465;BME280;46314;52.392;9.758;2023-05-22T04:51:16;100731.19;;;18.72;59.87
60465;BME280;46314;52.392;9.758;2023-05-22T04:53:42;100732.38;;;19.27;58.89
60465;BME280;46314;52.392;9.758;2023-05-22T04:56:10;100726.78;;;18.99;58.92
60465;BME280;46314;52.392;9.758;2023-05-22T04:58:40;100728.31;;;18.97;59.17
60465;BME280;46314;52.392;9.758;2023-05-22T05:01:06;100727.56;;;18.71;60.63
60465;BME280;46314;52.392;9.758;2023-05-22T05:03:33;100719.88;;;18.56;60.25
60465;BME280;46314;52.392;9.758;2023-05-22T05:05:59;100720.41;;;18.74;59.86
60465;BME280;46314;52.392;9.758;2023-05-22T05:08:26;100721.75;;;18.92;59.34
60465;BME280;46314;52.392;9.758;2023-05-22T05:10:52;100715.97;;;19.01;59.24
60465;BME280;46314;52.392;9.758;2023-05-22T05:13:20;100716.03;;;18.77;59.89
60465;BME280;46314;52.392;9.758;2023-05-22T05:15:46;100712.09;;;18.65;60.23
60465;BME280;46314;52.392;9.758;2023-05-22T05:18:13;100714.53;;;18.79;59.71
60465;BME280;46314;52.392;9.758;2023-05-22T05:20:39;100716.22;;;19.08;58.93
60465;BME280;46314;52.392;9.758;2023-05-22T05:23:06;100721.88;;;19.24;58.20
60465;BME280;46314;52.392;9.758;2023-05-22T05:25:32;100721.44;;;18.82;59.29
60465;BME280;46314;52.392;9.758;2023-05-22T05:27:59;100715.56;;;18.87;59.84
60465;BME280;46314;52.392;9.758;2023-05-22T05:30:27;100716.09;;;18.52;60.58
60465;BME280;46314;52.392;9.758;2023-05-22T05:32:53;100713.97;;;18.86;59.40
60465;BME280;46314;52.392;9.758;2023-05-22T05:35:20;100719.13;;;19.12;58.82
60465;BME280;46314;52.392;9.758;2023-05-22T05:37:46;100718.53;;;19.06;59.04
60465;BME280;46314;52.392;9.758;2023-05-22T05:40:12;100712.16;;;18.94;59.59
60465;BME280;46314;52.392;9.758;2023-05-22T05:42:39;100718.88;;;18.64;60.07
60465;BME280;46314;52.392;9.758;2023-05-22T05:45:06;100718.53;;;19.06;58.85
60465;BME280;46314;52.392;9.758;2023-05-22T05:47:34;100720.19;;;19.07;58.61
60465;BME280;46314;52.392;9.758;2023-05-22T05:50:01;100720.50;;;19.78;56.78
60465;BME280;46314;52.392;9.758;2023-05-22T05:52:27;100722.06;;;19.76;56.96
60465;BME280;46314;52.392;9.758;2023-05-22T05:54:53;100719.56;;;19.58;57.52
60465;BME280;46314;52.392;9.758;2023-05-22T05:57:21;100724.56;;;19.65;57.21
60465;BME280;46314;52.392;9.758;2023-05-22T05:59:48;100726.88;;;19.75;56.65
60465;BME280;46314;52.392;9.758;2023-05-22T06:02:14;100727.13;;;19.54;58.18
60465;BME280;46314;52.392;9.758;2023-05-22T06:04:42;100717.75;;;20.14;56.52
60465;BME280;46314;52.392;9.758;2023-05-22T06:07:08;100720.97;;;20.12;56.59
60465;BME280;46314;52.392;9.758;2023-05-22T06:09:35;100723.47;;;19.54;57.53
60465;BME280;46314;52.392;9.758;2023-05-22T06:12:02;100732.75;;;19.70;57.54
60465;BME280;46314;52.392;9.758;2023-05-22T06:14:28;100719.44;;;19.83;56.56
60465;BME280;46314;52.392;9.758;2023-05-22T06:16:55;100725.41;;;20.84;54.41
60465;BME280;46314;52.392;9.758;2023-05-22T06:19:21;100731.44;;;22.10;50.62
60465;BME280;46314;52.392;9.758;2023-05-22T06:21:49;100726.72;;;23.36;47.95
60465;BME280;46314;52.392;9.758;2023-05-22T06:24:17;100725.50;;;22.42;48.96
60465;BME280;46314;52.392;9.758;2023-05-22T06:26:44;100722.59;;;22.96;48.30
60465;BME280;46314;52.392;9.758;2023-05-22T06:29:10;100728.44;;;21.77;50.88
60465;BME280;46314;52.392;9.758;2023-05-22T06:31:37;100722.66;;;21.92;51.36
60465;BME280;46314;52.392;9.758;2023-05-22T06:34:03;100724.91;;;23.17;47.91
60465;BME280;46314;52.392;9.758;2023-05-22T06:36:30;100728.34;;;23.03;47.41
60465;BME280;46314;52.392;9.758;2023-05-22T06:38:58;100727.94;;;22.44;49.35
60465;BME280;46314;52.392;9.758;2023-05-22T06:41:24;100725.88;;;21.68;51.42
60465;BME280;46314;52.392;9.758;2023-05-22T06:43:50;100730.56;;;23.17;48.37
60465;BME280;46314;52.392;9.758;2023-05-22T06:46:17;100729.44;;;22.95;49.08
60465;BME280;46314;52.392;9.758;2023-05-22T06:48:43;100726.47;;;23.14;47.37
60465;BME280;46314;52.392;9.758;2023-05-22T06:51:11;100734.59;;;21.82;50.41
60465;BME280;46314;52.392;9.758;2023-05-22T06:53:38;100734.84;;;21.73;52.31
60465;BME280;46314;52.392;9.758;2023-05-22T06:56:06;100731.75;;;22.55;50.08
60465;BME280;46314;52.392;9.758;2023-05-22T06:58:32;100731.81;;;22.59;50.43
60465;BME280;46314;52.392;9.758;2023-05-22T07:00:59;100736.03;;;22.19;50.54
60465;BME280;46314;52.392;9.758;2023-05-22T07:03:25;100733.69;;;22.51;50.54
60465;BME280;46314;52.392;9.758;2023-05-22T07:05:53;100730.75;;;22.17;51.39
60465;BME280;46314;52.392;9.758;2023-05-22T07:08:19;100734.84;;;21.31;53.57
60465;BME280;46314;52.392;9.758;2023-05-22T07:10:46;100737.22;;;21.71;52.82
60465;BME280;46314;52.392;9.758;2023-05-22T07:13:13;100733.09;;;21.65;53.45
60465;BME280;46314;52.392;9.758;2023-05-22T07:15:40;100733.22;;;21.96;52.20
60465;BME280;46314;52.392;9.758;2023-05-22T07:18:06;100737.97;;;21.91;51.59
60465;BME280;46314;52.392;9.758;2023-05-22T07:20:33;100735.09;;;22.11;52.30
60465;BME280;46314;52.392;9.758;2023-05-22T07:22:59;100730.94;;;22.05;51.85
60465;BME280;46314;52.392;9.758;2023-05-22T07:25:25;100737.97;;;22.38;50.76
60465;BME280;46314;52.392;9.758;2023-05-22T07:27:52;100739.41;;;22.05;51.21
60465;BME280;46314;52.392;9.758;2023-05-22T07:30:21;100738.03;;;21.95;52.05
60465;BME280;46314;52.392;9.758;2023-05-22T07:32:48;100731.75;;;22.05;51.58
60465;BME280;46314;52.392;9.758;2023-05-22T07:35:15;100733.03;;;21.85;52.38
60465;BME280;46314;52.392;9.758;2023-05-22T07:37:41;100724.81;;;22.26;51.46
60465;BME280;46314;52.392;9.758;2023-05-22T07:40:08;100724.00;;;24.39;47.12
60465;BME280;46314;52.392;9.758;2023-05-22T07:42:35;100725.78;;;22.10;51.73
60465;BME280;46314;52.392;9.758;2023-05-22T07:45:02;100729.69;;;22.52;51.44
60465;BME280;46314;52.392;9.758;2023-05-22T07:47:30;100720.66;;;23.37;50.08
60465;BME280;46314;52.392;9.758;2023-05-22T07:49:57;100727.16;;;22.74;50.59
60465;BME280;46314;52.392;9.758;2023-05-22T07:52:23;100721.44;;;22.40;51.83
60465;BME280;46314;52.392;9.758;2023-05-22T07:54:50;100723.88;;;22.41;52.02
60465;BME280;46314;52.392;9.758;2023-05-22T07:57:16;100726.75;;;21.95;53.28
60465;BME280;46314;52.392;9.758;2023-05-22T07:59:43;100723.94;;;21.72;53.90
60465;BME280;46314;52.392;9.758;2023-05-22T08:02:09;100727.03;;;22.36;52.68
60465;BME280;46314;52.392;9.758;2023-05-22T08:04:37;100730.13;;;22.84;51.51
60465;BME280;46314;52.392;9.758;2023-05-22T08:07:04;100738.00;;;22.41;52.69
60465;BME280;46314;52.392;9.758;2023-05-22T08:09:31;100729.44;;;22.11;53.60
60465;BME280;46314;52.392;9.758;2023-05-22T08:11:57;100731.16;;;22.42;52.53
60465;BME280;46314;52.392;9.758;2023-05-22T08:14:23;100727.50;;;22.15;53.40
60465;BME280;46314;52.392;9.758;2023-05-22T08:16:50;100728.88;;;22.52;53.06
60465;BME280;46314;52.392;9.758;2023-05-22T08:19:17;100726.44;;;23.11;51.31
60465;BME280;46314;52.392;9.758;2023-05-22T08:21:44;100722.94;;;22.91;52.29
60465;BME280;46314;52.392;9.758;2023-05-22T08:24:11;100720.16;;;22.94;51.58
60465;BME280;46314;52.392;9.758;2023-05-22T08:26:37;100713.34;;;23.74;50.21
60465;BME280;46314;52.392;9.758;2023-05-22T08:29:04;100719.34;;;23.24;50.64
60465;BME280;46314;52.392;9.758;2023-05-22T08:31:30;100721.50;;;22.74;51.42
60465;BME280;46314;52.392;9.758;2023-05-22T08:33:57;100717.41;;;24.21;49.29
60465;BME280;46314;52.392;9.758;2023-05-22T08:36:23;100711.69;;;23.69;49.81
60465;BME280;46314;52.392;9.758;2023-05-22T08:38:51;100706.25;;;23.91;49.17
60465;BME280;46314;52.392;9.758;2023-05-22T08:41:17;100702.38;;;23.28;50.59
60465;BME280;46314;52.392;9.758;2023-05-22T08:43:44;100704.50;;;23.04;51.32
60465;BME280;46314;52.392;9.758;2023-05-22T08:46:10;100701.78;;;23.11;51.57
60465;BME280;46314;52.392;9.758;2023-05-22T08:48:37;100698.03;;;23.03;51.54
60465;BME280;46314;52.392;9.758;2023-05-22T08:51:04;100699.88;;;23.60;50.50
60465;BME280;46314;52.392;9.758;2023-05-22T08:53:33;100692.34;;;23.75;50.16
60465;BME280;46314;52.392;9.758;2023-05-22T08:56:04;100695.84;;;24.06;49.84
60465;BME280;46314;52.392;9.758;2023-05-22T08:58:32;100691.88;;;23.28;51.44
60465;BME280;46314;52.392;9.758;2023-05-22T09:01:00;100694.78;;;23.35;51.10
60465;BME280;46314;52.392;9.758;2023-05-22T09:03:28;100685.63;;;23.49;49.78
60465;BME280;46314;52.392;9.758;2023-05-22T09:05:54;100692.63;;;24.11;49.72
60465;BME280;46314;52.392;9.758;2023-05-22T09:08:21;100683.47;;;25.12;46.78
60465;BME280;46314;52.392;9.758;2023-05-22T09:10:48;100688.94;;;23.58;50.39
60465;BME280;46314;52.392;9.758;2023-05-22T09:13:24;100682.00;;;23.52;50.99
60465;BME280;46314;52.392;9.758;2023-05-22T09:15:50;100683.22;;;23.55;51.02
60465;BME280;46314;52.392;9.758;2023-05-22T09:18:17;100688.09;;;23.54;50.83
60465;BME280;46314;52.392;9.758;2023-05-22T09:20:44;100690.50;;;23.97;50.59
60465;BME280;46314;52.392;9.758;2023-05-22T09:23:11;100684.56;;;24.83;48.05
60465;BME280;46314;52.392;9.758;2023-05-22T09:25:40;100689.06;;;26.96;42.52
60465;BME280;46314;52.392;9.758;2023-05-22T09:28:07;100683.56;;;25.52;45.83
60465;BME280;46314;52.392;9.758;2023-05-22T09:30:35;100674.53;;;25.03;46.94
60465;BME280;46314;52.392;9.758;2023-05-22T09:33:02;100691.25;;;24.46;47.81
60465;BME280;46314;52.392;9.758;2023-05-22T09:35:30;100676.09;;;24.20;48.48
60465;BME280;46314;52.392;9.758;2023-05-22T09:37:57;100678.97;;;24.27;48.45
60465;BME280;46314;52.392;9.758;2023-05-22T09:40:26;100674.16;;;24.31;48.86
60465;BME280;46314;52.392;9.758;2023-05-22T09:42:53;100675.97;;;24.02;48.62
60465;BME280;46314;52.392;9.758;2023-05-22T09:45:21;100669.97;;;24.11;48.97
60465;BME280;46314;52.392;9.758;2023-05-22T09:47:50;100670.31;;;24.61;48.12
60465;BME280;46314;52.392;9.758;2023-05-22T09:50:17;100670.88;;;24.26;48.92
60465;BME280;46314;52.392;9.758;2023-05-22T09:52:44;100672.69;;;23.93;49.37
60465;BME280;46314;52.392;9.758;2023-05-22T09:55:12;100676.84;;;24.10;49.06
60465;BME280;46314;52.392;9.758;2023-05-22T09:57:40;100672.72;;;24.59;47.04
60465;BME280;46314;52.392;9.758;2023-05-22T10:00:10;100664.47;;;24.39;47.42
60465;BME280;46314;52.392;9.758;2023-05-22T10:02:41;100663.88;;;24.71;47.14
60465;BME280;46314;52.392;9.758;2023-05-22T10:05:10;100666.03;;;25.14;45.87
60465;BME280;46314;52.392;9.758;2023-05-22T10:07:42;100667.19;;;24.91;47.05
60465;BME280;46314;52.392;9.758;2023-05-22T10:10:12;100668.06;;;25.17;46.51
60465;BME280;46314;52.392;9.758;2023-05-22T10:12:43;100659.88;;;24.98;46.73
60465;BME280;46314;52.392;9.758;2023-05-22T10:15:10;100657.53;;;25.18;47.41
60465;BME280;46314;52.392;9.758;2023-05-22T10:17:38;100654.28;;;25.19;46.88
60465;BME280;46314;52.392;9.758;2023-05-22T10:20:07;100659.63;;;25.42;46.68
60465;BME280;46314;52.392;9.758;2023-05-22T10:22:35;100657.63;;;26.00;45.21
60465;BME280;46314;52.392;9.758;2023-05-22T10:25:03;100663.31;;;25.72;45.33
60465;BME280;46314;52.392;9.758;2023-05-22T10:27:30;100650.31;;;25.45;46.17
60465;BME280;46314;52.392;9.758;2023-05-22T10:30:01;100651.09;;;26.21;44.63
60465;BME280;46314;52.392;9.758;2023-05-22T10:32:36;100653.16;;;25.78;44.94
60465;BME280;46314;52.392;9.758;2023-05-22T10:35:08;100645.41;;;25.82;45.01
60465;BME280;46314;52.392;9.758;2023-05-22T10:37:46;100637.34;;;25.98;44.83
60465;BME280;46314;52.392;9.758;2023-05-22T10:40:17;100645.03;;;26.01;44.52
60465;BME280;46314;52.392;9.758;2023-05-22T10:42:45;100636.44;;;26.37;44.20
60465;BME280;46314;52.392;9.758;2023-05-22T10:45:12;100635.69;;;25.68;44.95
60465;BME280;46314;52.392;9.758;2023-05-22T10:47:39;100634.75;;;26.51;44.17
60465;BME280;46314;52.392;9.758;2023-05-22T10:50:07;100631.94;;;26.40;43.88
60465;BME280;46314;52.392;9.758;2023-05-22T10:52:34;100636.88;;;25.93;44.51
60465;BME280;46314;52.392;9.758;2023-05-22T10:55:05;100630.72;;;26.41;43.95
60465;BME280;46314;52.392;9.758;2023-05-22T10:57:32;100626.31;;;26.22;44.56
60465;BME280;46314;52.392;9.758;2023-05-22T11:00:09;100634.88;;;25.79;44.34
60465;BME280;46314;52.392;9.758;2023-05-22T11:02:40;100632.88;;;25.58;45.00
60465;BME280;46314;52.392;9.758;2023-05-22T11:05:31;100622.63;;;26.29;43.82
60465;BME280;46314;52.392;9.758;2023-05-22T11:08:08;100622.28;;;25.94;43.94
60465;BME280;46314;52.392;9.758;2023-05-22T11:10:52;100626.38;;;25.72;44.92
60465;BME280;46314;52.392;9.758;2023-05-22T11:13:19;100628.78;;;25.73;44.57
60465;BME280;46314;52.392;9.758;2023-05-22T11:15:47;100619.44;;;25.83;44.55
60465;BME280;46314;52.392;9.758;2023-05-22T11:18:13;100622.59;;;26.39;43.36
60465;BME280;46314;52.392;9.758;2023-05-22T11:20:40;100614.19;;;27.02;42.50
60465;BME280;46314;52.392;9.758;2023-05-22T11:23:09;100614.25;;;27.55;42.31
60465;BME280;46314;52.392;9.758;2023-05-22T11:25:37;100604.72;;;27.27;42.73
60465;BME280;46314;52.392;9.758;2023-05-22T11:28:06;100613.91;;;26.86;42.47
60465;BME280;46314;52.392;9.758;2023-05-22T11:30:33;100608.38;;;26.39;43.80
60465;BME280;46314;52.392;9.758;2023-05-22T11:33:01;100603.97;;;27.16;42.46
60465;BME280;46314;52.392;9.758;2023-05-22T11:35:28;100606.91;;;26.94;43.99
60465;BME280;46314;52.392;9.758;2023-05-22T11:37:54;100595.44;;;27.65;42.30
60465;BME280;46314;52.392;9.758;2023-05-22T11:40:22;100590.53;;;27.13;42.90
60465;BME280;46314;52.392;9.758;2023-05-22T11:42:49;100587.38;;;26.96;44.03
60465;BME280;46314;52.392;9.758;2023-05-22T11:45:18;100584.22;;;26.83;42.85
60465;BME280;46314;52.392;9.758;2023-05-22T11:47:45;100589.75;;;27.09;42.86
60465;BME280;46314;52.392;9.758;2023-05-22T11:50:12;100596.44;;;27.44;41.56
60465;BME280;46314;52.392;9.758;2023-05-22T11:52:40;100591.44;;;27.02;42.70
60465;BME280;46314;52.392;9.758;2023-05-22T11:55:08;100577.69;;;27.88;42.52
60465;BME280;46314;52.392;9.758;2023-05-22T11:57:35;100581.38;;;26.80;43.62
60465;BME280;46314;52.392;9.758;2023-05-22T12:00:02;100579.22;;;27.06;42.76
60465;BME280;46314;52.392;9.758;2023-05-22T12:02:31;100575.25;;;26.85;45.45
60465;BME280;46314;52.392;9.758;2023-05-22T12:04:57;100579.00;;;27.83;42.78
60465;BME280;46314;52.392;9.758;2023-05-22T12:07:25;100565.38;;;27.08;42.80
60465;BME280;46314;52.392;9.758;2023-05-22T12:09:54;100570.31;;;26.93;42.88
60465;BME280;46314;52.392;9.758;2023-05-22T12:12:21;100568.69;;;27.55;43.51
60465;BME280;46314;52.392;9.758;2023-05-22T12:14:48;100569.25;;;27.35;42.76
60465;BME280;46314;52.392;9.758;2023-05-22T12:17:16;100576.22;;;26.53;43.91
60465;BME280;46314;52.392;9.758;2023-05-22T12:19:44;100575.41;;;26.53;43.61
60465;BME280;46314;52.392;9.758;2023-05-22T12:22:10;100574.59;;;26.52;43.63
60465;BME280;46314;52.392;9.758;2023-05-22T12:24:37;100574.22;;;26.43;44.15
60465;BME280;46314;52.392;9.758;2023-05-22T12:27:07;100574.81;;;27.50;41.92
60465;BME280;46314;52.392;9.758;2023-05-22T12:29:33;100571.25;;;27.84;41.47
60465;BME280;46314;52.392;9.758;2023-05-22T12:32:01;100559.47;;;27.36;42.21
60465;BME280;46314;52.392;9.758;2023-05-22T12:34:31;100556.16;;;26.82;43.55
60465;BME280;46314;52.392;9.758;2023-05-22T12:36:59;100563.00;;;26.95;42.26
60465;BME280;46314;52.392;9.758;2023-05-22T12:39:26;100560.69;;;27.81;41.20
60465;BME280;46314;52.392;9.758;2023-05-22T12:41:53;100554.50;;;26.92;41.60
60465;BME280;46314;52.392;9.758;2023-05-22T12:44:19;100558.22;;;26.78;41.82
60465;BME280;46314;52.392;9.758;2023-05-22T12:46:46;100558.41;;;27.16;41.70
60465;BME280;46314;52.392;9.758;2023-05-22T12:49:12;100555.56;;;27.09;41.98
60465;BME280;46314;52.392;9.758;2023-05-22T12:51:39;100551.13;;;28.36;39.45